Time;durP1;ratioP1;P1;durP2;ratioP2;P2;SDS_P1;SDS_P2;PMS_P1;PMS_P2;Temp;Humidity;BMP_temperature;BMP_pressure;BME280_temperature;BME280_humidity;BME280_pressure;Samples;Min_cycle;Max_cycle;Signal;HPM_P1;HPM_P2
2022/10/23 00:01:14;;;;;;;47.73;23.65;;;;;;;9.90;100.00;99908.06;1758868;79;21000;-91
2022/10/23 00:03:42;;;;;;;36.90;20.20;;;;;;;9.88;100.00;99895.81;1764171;80;21121;-90
2022/10/23 00:06:09;;;;;;;36.70;21.02;;;;;;;9.91;100.00;99900.56;1755139;80;21114;-91
2022/10/23 00:08:35;;;;;;;37.73;21.57;;;;;;;9.85;100.00;99898.56;1759824;80;21262;-89
2022/10/23 00:11:08;;;;;;;39.80;23.73;;;;;;;9.68;100.00;99897.01;1756823;80;21050;-92
2022/10/23 00:13:35;;;;;;;49.03;25.32;;;;;;;9.67;100.00;99897.94;1757151;80;21914;-91
2022/10/23 00:16:04;;;;;;;38.92;21.73;;;;;;;9.80;100.00;99896.58;1768651;80;21091;-91
2022/10/23 00:18:30;;;;;;;39.83;20.62;;;;;;;9.62;100.00;99899.88;1754511;79;21088;-89
2022/10/23 00:21:00;;;;;;;47.73;22.85;;;;;;;9.56;100.00;99900.09;1768225;79;20957;-89
2022/10/23 00:23:26;;;;;;;41.65;23.15;;;;;;;9.76;100.00;99897.59;1760764;80;21095;-89
2022/10/23 00:25:53;;;;;;;39.05;21.55;;;;;;;9.76;100.00;99896.28;1752886;80;21102;-88
2022/10/23 00:28:19;;;;;;;39.40;22.32;;;;;;;9.66;100.00;99897.52;1751238;80;21000;-91
2022/10/23 00:30:46;;;;;;;43.95;23.35;;;;;;;9.60;100.00;99899.08;1767672;80;21047;-91
2022/10/23 00:33:15;;;;;;;34.83;20.88;;;;;;;9.52;100.00;99895.86;1757883;80;21016;-90
2022/10/23 00:35:41;;;;;;;34.13;20.60;;;;;;;9.49;100.00;99896.83;1765488;80;20998;-91
2022/10/23 00:38:08;;;;;;;36.03;22.48;;;;;;;9.59;100.00;99898.66;1761818;80;21247;-90
2022/10/23 00:40:35;;;;;;;34.60;21.10;;;;;;;9.57;100.00;99892.59;1752707;80;20925;-91
2022/10/23 00:43:02;;;;;;;41.58;23.12;;;;;;;9.47;100.00;99895.17;1756796;80;20965;-90
2022/10/23 00:45:32;;;;;;;38.60;21.20;;;;;;;9.65;100.00;99895.35;1810752;78;21032;-90
2022/10/23 00:48:00;;;;;;;38.78;21.27;;;;;;;9.42;100.00;99885.68;1803685;78;21036;-90
2022/10/23 00:50:30;;;;;;;38.88;21.62;;;;;;;9.44;100.00;99886.48;1807172;79;21245;-91
2022/10/23 00:53:00;;;;;;;40.20;22.62;;;;;;;9.50;100.00;99889.80;1806200;78;27181;-92
2022/10/23 00:55:26;;;;;;;42.58;25.10;;;;;;;9.41;100.00;99886.61;1806350;78;21130;-89
2022/10/23 00:57:54;;;;;;;42.88;24.87;;;;;;;9.48;100.00;99884.62;1801791;78;21238;-88
2022/10/23 01:00:28;;;;;;;44.45;26.00;;;;;;;9.44;100.00;99886.48;1794254;78;21637;-90
2022/10/23 01:02:54;;;;;;;43.50;25.50;;;;;;;9.34;100.00;99877.23;1750849;80;21192;-89
2022/10/23 01:05:31;;;;;;;43.75;26.55;;;;;;;9.35;100.00;99878.93;1780130;80;21039;-91
2022/10/23 01:08:15;;;;;;;46.65;26.42;;;;;;;9.32;100.00;99881.68;1762592;80;21036;-88
2022/10/23 01:10:49;;;;;;;40.17;24.67;;;;;;;9.37;100.00;99869.22;1726806;80;21083;-91
2022/10/23 01:13:24;;;;;;;47.35;27.25;;;;;;;9.35;100.00;99867.57;1745155;80;21092;-90
2022/10/23 01:15:58;;;;;;;50.25;28.10;;;;;;;9.38;100.00;99865.67;1757943;78;21075;-91
2022/10/23 01:18:31;;;;;;;48.90;26.48;;;;;;;9.50;100.00;99866.14;1757073;79;21313;-92
2022/10/23 01:21:12;;;;;;;55.75;31.65;;;;;;;9.50;100.00;99860.88;1776140;79;21082;-91
2022/10/23 01:23:56;;;;;;;51.23;27.52;;;;;;;9.45;100.00;99852.73;1776394;79;21034;-91
2022/10/23 01:26:36;;;;;;;48.28;29.02;;;;;;;9.39;100.00;99851.63;1750821;80;21036;-91
2022/10/23 01:29:20;;;;;;;51.05;29.95;;;;;;;9.43;100.00;99851.05;1763905;79;21149;-90
2022/10/23 01:31:55;;;;;;;51.88;29.37;;;;;;;9.26;100.00;99846.88;1767632;80;21083;-91
2022/10/23 01:34:29;;;;;;;51.75;29.37;;;;;;;9.28;100.00;99843.28;1765523;80;21066;-92
2022/10/23 01:36:56;;;;;;;44.93;27.15;;;;;;;9.28;100.00;99843.28;1762648;80;21091;-89
2022/10/23 01:39:26;;;;;;;47.98;27.07;;;;;;;9.30;100.00;99839.30;1763545;80;21106;-90
2022/10/23 01:42:13;;;;;;;48.60;29.95;;;;;;;9.28;100.00;99832.77;1733631;80;21140;-88
2022/10/23 01:45:00;;;;;;;52.17;27.75;;;;;;;9.26;100.00;99831.97;1769751;80;21039;-91
2022/10/23 01:47:30;;;;;;;54.65;31.68;;;;;;;9.22;100.00;99838.23;1752864;80;21068;-92
2022/10/23 01:49:58;;;;;;;51.08;29.18;;;;;;;9.24;100.00;99833.78;1744119;81;21052;-91
2022/10/23 01:52:25;;;;;;;52.73;30.27;;;;;;;9.30;100.00;99834.89;1765024;80;21142;-90
2022/10/23 01:54:55;;;;;;;49.67;26.97;;;;;;;9.27;100.00;99828.44;1757525;80;21320;-91
2022/10/23 01:57:22;;;;;;;46.33;29.30;;;;;;;9.39;100.00;99825.35;1760863;80;21071;-92
2022/10/23 02:00:01;;;;;;;50.08;29.12;;;;;;;9.18;100.00;99827.00;1749917;79;21015;-89
2022/10/23 02:02:28;;;;;;;47.15;29.00;;;;;;;9.23;100.00;99828.14;1765494;80;21119;-91
2022/10/23 02:05:07;;;;;;;49.13;30.25;;;;;;;9.39;100.00;99824.04;1761896;80;21068;-91
2022/10/23 02:07:33;;;;;;;55.90;34.20;;;;;;;9.37;100.00;99832.43;1771173;80;21132;-90
2022/10/23 02:10:01;;;;;;;56.35;30.25;;;;;;;9.35;100.00;99831.63;1762391;80;21329;-89
2022/10/23 02:13:07;;;;;;;54.90;32.58;;;;;;;9.35;100.00;99829.00;1755809;80;21022;-89
2022/10/23 02:16:05;;;;;;;52.83;30.62;;;;;;;9.29;100.00;99823.11;1762474;80;21532;-88
2022/10/23 02:19:07;;;;;;;55.05;32.70;;;;;;;9.38;100.00;99824.08;1758700;79;21066;-86
2022/10/23 02:21:54;;;;;;;55.60;33.08;;;;;;;9.23;100.00;99818.95;1706519;81;21124;-92
2022/10/23 02:24:29;;;;;;;54.23;31.73;;;;;;;9.42;100.00;99817.34;1764007;80;21076;-92
2022/10/23 02:27:00;;;;;;;61.58;35.23;;;;;;;9.29;100.00;99818.70;1747558;81;21067;-92
2022/10/23 02:29:44;;;;;;;58.60;32.70;;;;;;;9.37;100.00;99823.23;1747722;80;21055;-91
2022/10/23 02:32:11;;;;;;;55.08;32.28;;;;;;;9.29;100.00;99816.54;1754856;80;21012;-92
2022/10/23 02:34:41;;;;;;;46.58;30.43;;;;;;;9.37;100.00;99820.61;1758255;80;21150;-90
2022/10/23 02:37:09;;;;;;;52.38;29.95;;;;;;;9.35;100.00;99816.32;1744782;81;21126;-91
2022/10/23 02:39:37;;;;;;;46.13;30.55;;;;;;;9.32;100.00;99813.36;1764187;80;21517;-90
2022/10/23 02:42:30;;;;;;;48.68;28.57;;;;;;;9.35;100.00;99817.64;1747494;80;22415;-91
2022/10/23 02:45:13;;;;;;;55.10;31.27;;;;;;;9.35;100.00;99818.48;1751212;80;21099;-90
2022/10/23 02:48:00;;;;;;;50.12;30.77;;;;;;;9.35;100.00;99813.23;1771221;80;21952;-91
2022/10/23 02:50:39;;;;;;;44.48;25.27;;;;;;;9.42;100.00;99810.77;1780681;80;21313;-91
2022/10/23 02:53:34;;;;;;;45.17;27.85;;;;;;;9.50;100.00;99808.31;1772578;80;21103;-91
2022/10/23 02:56:12;;;;;;;51.70;27.62;;;;;;;9.34;100.00;99802.33;1767606;79;21099;-91
2022/10/23 02:58:59;;;;;;;44.67;26.87;;;;;;;9.41;100.00;99806.45;1769253;79;21054;-90
2022/10/23 03:01:30;;;;;;;48.48;28.20;;;;;;;9.32;100.00;99813.36;1741159;80;21107;-90
2022/10/23 03:03:58;;;;;;;49.67;28.95;;;;;;;9.40;100.00;99807.34;1745504;82;21094;-91
2022/10/23 03:06:24;;;;;;;49.33;29.72;;;;;;;9.42;100.00;99813.40;1725318;81;21107;-92
2022/10/23 03:09:06;;;;;;;50.45;29.75;;;;;;;9.34;100.00;99819.41;1740999;82;21058;-90
2022/10/23 03:11:35;;;;;;;52.62;30.65;;;;;;;9.29;100.00;99817.39;1745595;82;21242;-91
2022/10/23 03:14:04;;;;;;;54.13;30.92;;;;;;;9.34;100.00;99816.78;1724348;81;21127;-90
2022/10/23 03:16:31;;;;;;;46.13;29.40;;;;;;;9.49;100.00;99819.75;1726491;80;21062;-91
2022/10/23 03:18:57;;;;;;;48.28;29.55;;;;;;;9.64;100.00;99824.44;1745701;81;21603;-90
2022/10/23 03:21:24;;;;;;;44.80;28.55;;;;;;;9.61;100.00;99824.53;1730587;80;21082;-91
2022/10/23 03:23:52;;;;;;;52.23;29.42;;;;;;;9.51;100.00;99819.24;1731141;81;21088;-89
2022/10/23 03:26:21;;;;;;;47.08;28.30;;;;;;;9.59;100.00;99817.16;1745046;81;21535;-89
2022/10/23 03:28:49;;;;;;;53.55;32.53;;;;;;;9.61;100.00;99814.02;1743593;82;21081;-89
2022/10/23 03:31:15;;;;;;;50.23;30.85;;;;;;;9.68;100.00;99823.84;1747837;82;21161;-90
2022/10/23 03:33:43;;;;;;;54.67;34.55;;;;;;;9.78;100.00;99814.24;1743560;81;21070;-90
2022/10/23 03:36:11;;;;;;;56.90;34.58;;;;;;;9.90;100.00;99816.84;1725476;81;21103;-90
2022/10/23 03:38:37;;;;;;;64.37;38.63;;;;;;;9.75;100.00;99813.02;1730897;81;21205;-92
2022/10/23 03:41:04;;;;;;;59.40;35.13;;;;;;;9.73;100.00;99807.00;1740727;81;21128;-90
2022/10/23 03:43:33;;;;;;;54.73;34.03;;;;;;;9.70;100.00;99809.72;1748797;81;21614;-91
2022/10/23 03:46:00;;;;;;;61.90;35.80;;;;;;;9.78;100.00;99805.04;1764943;80;21008;-90
2022/10/23 03:48:27;;;;;;;56.85;33.55;;;;;;;9.65;100.00;99806.42;1764590;80;21571;-90
2022/10/23 03:50:56;;;;;;;55.78;33.18;;;;;;;9.81;100.00;99808.85;1741192;80;22222;-90
2022/10/23 03:53:24;;;;;;;56.42;33.78;;;;;;;9.64;100.00;99806.03;1760587;80;21556;-91
2022/10/23 03:55:51;;;;;;;56.53;35.45;;;;;;;9.51;100.00;99803.47;1766436;80;22268;-92
2022/10/23 03:58:17;;;;;;;57.78;34.18;;;;;;;9.59;100.00;99811.91;1757248;80;21012;-93
2022/10/23 04:00:45;;;;;;;54.73;31.57;;;;;;;9.53;100.00;99804.27;1760481;79;20945;-90
2022/10/23 04:03:12;;;;;;;56.10;33.92;;;;;;;9.62;100.00;99799.98;1728134;80;21159;-91
2022/10/23 04:05:41;;;;;;;48.30;31.68;;;;;;;9.56;100.00;99794.94;1731427;82;21010;-90
2022/10/23 04:08:10;;;;;;;54.63;32.93;;;;;;;9.62;100.00;99793.41;1758741;80;21083;-91
2022/10/23 04:10:38;;;;;;;51.92;31.62;;;;;;;9.59;100.00;99789.13;1760670;80;21083;-91
2022/10/23 04:13:05;;;;;;;46.15;27.55;;;;;;;9.78;100.00;99785.31;1756891;80;21074;-92
2022/10/23 04:15:35;;;;;;;45.55;28.80;;;;;;;9.67;100.00;99788.81;1761508;80;21091;-89
2022/10/23 04:18:01;;;;;;;48.75;28.87;;;;;;;9.66;100.00;99789.72;1764412;79;21067;-90
2022/10/23 04:20:31;;;;;;;55.90;33.80;;;;;;;9.54;100.00;99788.88;1761228;79;21091;-92
2022/10/23 04:23:00;;;;;;;52.67;33.65;;;;;;;9.83;100.00;99784.67;1761431;80;21224;-89
2022/10/23 04:25:28;;;;;;;60.50;34.83;;;;;;;9.70;100.00;99780.80;1750011;80;21085;-90
2022/10/23 04:27:55;;;;;;;54.10;32.50;;;;;;;9.70;100.00;99780.80;1741531;81;21210;-91
2022/10/23 04:30:21;;;;;;;61.05;35.17;;;;;;;9.60;100.00;99775.05;1745203;82;21073;-89
2022/10/23 04:32:53;;;;;;;59.88;35.60;;;;;;;9.74;100.00;99769.25;1740266;81;21073;-90
2022/10/23 04:35:19;;;;;;;;;;;;;;;9.83;100.00;99783.35;1730335;81;21091;-87
2022/10/23 04:37:46;;;;;;;52.90;33.67;;;;;;;9.93;100.00;99782.98;1738999;82;20393;-90
2022/10/23 04:40:13;;;;;;;57.38;32.80;;;;;;;9.56;100.00;99776.55;1734985;81;21159;-92
2022/10/23 04:42:40;;;;;;;57.98;32.08;;;;;;;9.67;100.00;99779.61;1740056;81;21093;-87
2022/10/23 04:45:07;;;;;;;53.17;34.00;;;;;;;9.79;100.00;99787.02;1756352;81;21081;-90
2022/10/23 04:47:35;;;;;;;47.35;29.32;;;;;;;9.84;100.00;99784.20;1764754;80;21131;-90
2022/10/23 04:50:02;;;;;;;52.35;31.25;;;;;;;9.81;100.00;99785.65;1753422;80;21098;-90
2022/10/23 04:52:36;;;;;;;51.40;30.97;;;;;;;9.85;100.00;99778.89;1761530;81;21779;-90
2022/10/23 04:55:07;;;;;;;47.20;28.62;;;;;;;9.96;100.00;99782.86;1756384;80;21021;-91
2022/10/23 04:57:47;;;;;;;43.23;27.32;;;;;;;9.92;100.00;99779.97;1746241;80;21580;-90
2022/10/23 05:00:15;;;;;;;45.78;29.15;;;;;;;9.95;100.00;99782.47;1753511;80;21064;-89
2022/10/23 05:02:46;;;;;;;47.40;29.15;;;;;;;10.03;100.00;99779.06;1758607;80;21063;-90
2022/10/23 05:05:15;;;;;;;46.68;30.70;;;;;;;10.06;100.00;99781.59;1751783;80;21166;-91
2022/10/23 05:07:47;;;;;;;49.13;31.35;;;;;;;9.99;100.00;99777.49;1725020;80;21043;-91
2022/10/23 05:10:16;;;;;;;47.67;31.00;;;;;;;9.88;100.00;99780.55;1722342;80;21071;-91
2022/10/23 05:12:45;;;;;;;50.00;33.50;;;;;;;10.03;100.00;99783.00;1754970;80;21123;-91
2022/10/23 05:15:12;;;;;;;49.58;32.08;;;;;;;10.20;100.00;99789.77;1753140;81;21378;-88
2022/10/23 05:17:40;;;;;;;47.10;31.42;;;;;;;10.18;100.00;99782.39;1761515;79;21253;-90
2022/10/23 05:20:17;;;;;;;50.60;32.03;;;;;;;10.06;100.00;99781.12;1764893;79;21051;-90
2022/10/23 05:22:43;;;;;;;52.33;32.55;;;;;;;10.04;100.00;99784.73;1739594;80;21105;-91
2022/10/23 05:25:11;;;;;;;49.30;32.23;;;;;;;10.07;100.00;99783.28;1762932;80;21053;-91
2022/10/23 05:27:40;;;;;;;51.58;32.17;;;;;;;10.03;100.00;99784.32;1744864;80;21082;-90
2022/10/23 05:30:10;;;;;;;46.60;29.25;;;;;;;10.04;100.00;99786.05;1776939;80;21807;-89
2022/10/23 05:32:37;;;;;;;50.70;31.82;;;;;;;10.24;100.00;99790.05;1756410;80;21587;-91
2022/10/23 05:35:08;;;;;;;48.90;31.87;;;;;;;10.40;100.00;99793.38;1756778;80;21043;-91
2022/10/23 05:37:40;;;;;;;51.90;35.13;;;;;;;10.22;100.00;99792.34;1765924;80;21592;-89
2022/10/23 05:40:10;;;;;;;52.95;31.20;;;;;;;10.09;100.00;99790.66;1764687;81;21019;-91
2022/10/23 05:42:38;;;;;;;48.83;31.55;;;;;;;10.22;100.00;99795.83;1764484;81;21248;-92
2022/10/23 05:45:06;;;;;;;47.90;30.72;;;;;;;10.21;100.00;99793.25;1747623;80;21067;-92
2022/10/23 05:47:52;;;;;;;47.27;29.67;;;;;;;10.29;100.00;99789.42;1767175;80;21028;-91
2022/10/23 05:50:38;;;;;;;43.95;29.57;;;;;;;10.08;100.00;99792.91;1760000;80;21181;-92
2022/10/23 05:53:16;;;;;;;43.70;28.07;;;;;;;10.13;100.00;99788.77;1760643;80;20996;-91
2022/10/23 05:55:50;;;;;;;43.68;28.55;;;;;;;10.11;100.00;99790.61;1749253;80;21647;-90
2022/10/23 05:58:18;;;;;;;45.52;29.35;;;;;;;10.13;100.00;99783.05;1771463;80;21093;-91
2022/10/23 06:00:56;;;;;;;44.70;29.55;;;;;;;10.25;100.00;99785.63;1740379;81;21014;-90
2022/10/23 06:03:28;;;;;;;47.48;30.70;;;;;;;10.27;100.00;99776.75;1716345;81;21127;-88
2022/10/23 06:05:54;;;;;;;47.20;29.48;;;;;;;10.34;100.00;99777.85;1754712;81;21047;-88
2022/10/23 06:08:23;;;;;;;52.85;30.72;;;;;;;10.43;100.00;99782.73;1750329;81;22065;-91
2022/10/23 06:10:50;;;;;;;47.38;30.35;;;;;;;10.31;100.00;99781.91;1746856;81;21068;-90
2022/10/23 06:13:18;;;;;;;46.60;29.07;;;;;;;10.41;100.00;99784.11;1706811;83;21329;-91
2022/10/23 06:15:44;;;;;;;54.88;28.83;;;;;;;10.43;100.00;99786.68;1720144;82;21091;-91
2022/10/23 06:18:14;;;;;;;49.25;29.30;;;;;;;10.37;100.00;99790.88;1689155;82;21069;-93
2022/10/23 06:20:44;;;;;;;58.48;30.52;;;;;;;10.40;100.00;99784.16;1742941;80;21310;-91
2022/10/23 06:23:12;;;;;;;53.25;30.68;;;;;;;10.34;100.00;99786.59;1702783;82;21077;-91
2022/10/23 06:25:55;;;;;;;53.85;29.42;;;;;;;10.37;100.00;99786.92;1747376;81;21056;-92
2022/10/23 06:28:25;;;;;;;49.58;29.35;;;;;;;10.39;100.00;99791.67;1747999;81;21107;-92
2022/10/23 06:30:54;;;;;;;50.38;28.77;;;;;;;10.42;100.00;99798.11;1751688;81;21121;-92
2022/10/23 06:33:23;;;;;;;48.23;29.92;;;;;;;10.45;100.00;99788.80;1686736;82;21109;-92
2022/10/23 06:35:51;;;;;;;60.20;32.20;;;;;;;10.54;100.00;99783.14;1757426;80;20982;-91
2022/10/23 06:38:17;;;;;;;54.53;32.38;;;;;;;10.49;100.00;99783.34;1740265;80;21100;-89
2022/10/23 06:40:55;;;;;;;51.75;30.65;;;;;;;10.59;100.00;99782.48;1765485;80;22142;-90
2022/10/23 06:43:24;;;;;;;53.33;33.38;;;;;;;10.67;100.00;99779.07;1760974;79;21075;-90
2022/10/23 06:46:12;;;;;;;57.05;32.60;;;;;;;10.69;100.00;99774.56;1771465;81;22040;-90
2022/10/23 06:48:57;;;;;;;53.25;30.45;;;;;;;10.69;100.00;99774.56;1755288;80;21059;-90
2022/10/23 06:51:29;;;;;;;48.90;29.57;;;;;;;10.60;100.00;99777.59;1757337;80;21039;-92
2022/10/23 06:53:55;;;;;;;49.10;29.57;;;;;;;10.77;100.00;99776.04;1762288;80;20993;-91
2022/10/23 06:56:38;;;;;;;46.88;28.52;;;;;;;10.62;100.00;99775.75;1724243;81;21143;-90
2022/10/23 06:59:06;;;;;;;44.88;27.07;;;;;;;10.74;100.00;99783.58;1765209;79;21979;-91
2022/10/23 07:01:34;;;;;;;51.00;30.05;;;;;;;10.65;100.00;99778.71;1765230;81;21004;-92
2022/10/23 07:04:03;;;;;;;51.45;30.52;;;;;;;10.72;100.00;99782.83;1757475;80;21130;-92
2022/10/23 07:06:30;;;;;;;50.55;29.72;;;;;;;10.84;100.00;99773.06;1760314;80;21067;-92
2022/10/23 07:08:59;;;;;;;48.75;30.92;;;;;;;10.88;100.00;99777.28;1752669;80;20988;-91
2022/10/23 07:11:48;;;;;;;51.80;30.15;;;;;;;10.89;100.00;99776.34;1680801;84;21105;-90
2022/10/23 07:14:15;;;;;;;45.03;28.85;;;;;;;10.88;100.00;99779.03;1681817;85;21404;-90
2022/10/23 07:16:59;;;;;;;42.33;28.35;;;;;;;11.00;100.00;99782.94;1706950;81;21046;-92
2022/10/23 07:19:27;;;;;;;44.88;28.80;;;;;;;10.86;100.00;99783.54;1775378;79;21625;-93
2022/10/23 07:21:59;;;;;;;43.35;26.70;;;;;;;10.91;100.00;99777.60;1747355;82;21064;-91
2022/10/23 07:24:43;;;;;;;43.68;29.27;;;;;;;11.03;100.00;99783.63;1777202;79;21848;-91
2022/10/23 07:27:14;;;;;;;38.78;26.77;;;;;;;11.16;100.00;99781.76;1775145;80;21058;-92
2022/10/23 07:29:42;;;;;;;45.03;27.40;;;;;;;11.17;100.00;99778.22;1770959;80;21565;-90
2022/10/23 07:32:10;;;;;;;46.42;27.10;;;;;;;11.14;100.00;99777.90;1765127;80;21551;-92
2022/10/23 07:34:55;;;;;;;40.15;27.58;;;;;;;11.23;100.00;99776.16;1729903;81;21649;-92
2022/10/23 07:37:24;;;;;;;44.55;28.65;;;;;;;11.21;100.00;99781.11;1749150;81;21108;-91
2022/10/23 07:39:50;;;;;;;53.23;33.88;;;;;;;11.16;100.00;99773.41;1752665;81;21076;-90
2022/10/23 07:42:18;;;;;;;53.42;32.28;;;;;;;11.28;100.00;99777.27;1723802;82;21084;-92
2022/10/23 07:44:47;;;;;;;49.70;31.15;;;;;;;11.39;100.00;99769.73;1737094;82;21053;-92
2022/10/23 07:47:14;;;;;;;44.20;28.95;;;;;;;11.62;100.00;99770.41;1799088;77;21093;-92
2022/10/23 07:49:50;;;;;;;43.78;25.90;;;;;;;11.45;100.00;99773.37;1798928;78;21257;-92
2022/10/23 07:52:19;;;;;;;44.18;29.18;;;;;;;11.38;100.00;99774.59;1785414;78;21536;-92
2022/10/23 07:54:56;;;;;;;39.45;25.95;;;;;;;11.54;100.00;99769.00;1800623;78;21081;-90
2022/10/23 07:57:25;;;;;;;40.23;27.85;;;;;;;11.63;100.00;99772.99;1796883;77;21051;-91
2022/10/23 07:59:56;;;;;;;43.87;27.02;;;;;;;11.62;100.00;99769.98;1801764;78;21060;-92
2022/10/23 08:02:24;;;;;;;40.17;24.45;;;;;;;11.63;100.00;99766.87;1798336;78;21291;-88
2022/10/23 08:04:52;;;;;;;42.17;27.30;;;;;;;11.48;100.00;99774.58;1797093;78;21639;-92
2022/10/23 08:07:22;;;;;;;40.33;27.07;;;;;;;11.52;100.00;99776.12;1781035;77;21018;-92
2022/10/23 08:09:50;;;;;;;48.83;29.40;;;;;;;11.53;100.00;99772.58;1800974;77;21048;-90
2022/10/23 08:12:17;;;;;;;50.78;30.25;;;;;;;11.64;100.00;99772.08;1792778;78;21548;-90
2022/10/23 08:17:10;;;;;;;46.25;28.05;;;;;;;10.89;100.00;99772.86;1796793;79;28074;-66
2022/10/23 08:19:50;;;;;;;45.83;30.05;;;;;;;11.16;100.00;99776.48;1718879;81;21069;-68
2022/10/23 08:22:18;;;;;;;39.30;25.43;;;;;;;11.26;100.00;99769.89;1756310;81;21165;-67
2022/10/23 08:24:46;;;;;;;39.08;25.50;;;;;;;11.36;100.00;99771.17;1756245;81;21016;-66
2022/10/23 08:27:12;;;;;;;37.35;24.18;;;;;;;11.50;100.00;99771.41;1756758;81;21065;-66
2022/10/23 08:29:41;;;;;;;38.98;25.08;;;;;;;11.47;100.00;99776.80;1756100;81;21025;-66
2022/10/23 08:32:08;;;;;;;37.05;23.83;;;;;;;11.47;100.00;99778.13;1756649;81;20994;-67
2022/10/23 08:34:52;;;;;;;37.98;24.87;;;;;;;11.53;100.00;99783.12;1756376;81;21147;-67
2022/10/23 08:37:21;;;;;;;39.75;24.85;;;;;;;11.60;100.00;99785.48;1756300;81;21006;-67
2022/10/23 08:39:48;;;;;;;45.25;25.60;;;;;;;11.69;100.00;99787.69;1756265;81;21025;-67
2022/10/23 08:42:21;;;;;;;40.67;26.33;;;;;;;11.66;100.00;99790.45;1756272;81;21616;-69
2022/10/23 08:45:19;;;;;;;40.88;24.87;;;;;;;11.75;100.00;99787.37;1742503;81;21117;-66
2022/10/23 08:47:50;;;;;;;37.05;24.67;;;;;;;11.78;100.00;99791.22;1761951;81;21094;-69
2022/10/23 08:50:45;;;;;;;38.13;23.60;;;;;;;11.79;100.00;99788.95;1762033;81;21086;-67
2022/10/23 08:53:23;;;;;;;40.17;25.45;;;;;;;11.64;100.00;99789.66;1762076;81;21638;-67
2022/10/23 08:56:06;;;;;;;35.78;22.27;;;;;;;11.66;100.00;99795.73;1761915;81;21032;-66
2022/10/23 08:58:44;;;;;;;41.42;26.33;;;;;;;11.72;100.00;99796.77;1745469;81;21075;-67
2022/10/23 09:01:27;;;;;;;37.20;22.67;;;;;;;11.86;100.00;99799.60;1747121;81;21626;-67
2022/10/23 09:03:54;;;;;;;40.03;24.57;;;;;;;12.10;100.00;99800.70;1731676;82;21046;-68
2022/10/23 09:06:37;;;;;;;42.05;25.20;;;;;;;12.03;100.00;99792.25;1714970;82;21102;-67
2022/10/23 09:09:34;;;;;;;37.23;22.50;;;;;;;12.03;100.00;99800.61;1731695;82;21598;-68
2022/10/23 09:12:08;;;;;;;39.00;23.30;;;;;;;12.05;100.00;99798.75;1731560;82;21544;-67
2022/10/23 09:15:05;;;;;;;35.65;22.58;;;;;;;12.17;100.00;99802.14;1731531;82;21141;-66
2022/10/23 09:17:36;;;;;;;40.92;24.00;;;;;;;12.13;100.00;99799.25;1731560;82;21011;-66
2022/10/23 09:20:26;;;;;;;40.75;23.70;;;;;;;12.09;100.00;99797.69;1731405;82;21342;-67
2022/10/23 09:22:57;;;;;;;28.23;16.90;;;;;;;12.14;100.00;99799.62;1731777;82;21180;-69
2022/10/23 09:25:28;;;;;;;39.30;22.80;;;;;;;12.27;100.00;99795.46;1730978;82;21621;-67
2022/10/23 09:27:58;;;;;;;37.90;23.67;;;;;;;12.39;100.00;99802.77;1731245;82;21124;-68
2022/10/23 09:30:30;;;;;;;42.08;23.12;;;;;;;12.37;100.00;99801.13;1731341;82;21034;-67
2022/10/23 09:32:58;;;;;;;38.17;21.50;;;;;;;12.35;100.00;99802.99;1730789;82;21047;-68
2022/10/23 09:35:28;;;;;;;36.25;22.05;;;;;;;12.38;100.00;99798.43;1731182;82;21594;-66
2022/10/23 09:37:56;;;;;;;40.08;23.25;;;;;;;12.34;100.00;99800.83;1731294;82;21070;-67
2022/10/23 09:40:38;;;;;;;39.40;23.50;;;;;;;12.30;100.00;99803.22;1731244;82;22151;-67
2022/10/23 09:43:16;;;;;;;43.02;23.95;;;;;;;12.28;100.00;99799.80;1715203;82;21058;-67
2022/10/23 09:45:43;;;;;;;42.35;21.93;;;;;;;12.36;100.00;99806.04;1696890;84;21084;-67
2022/10/23 09:48:17;;;;;;;39.35;23.02;;;;;;;12.43;100.00;99802.63;1696036;84;21147;-67
2022/10/23 09:51:00;;;;;;;36.45;22.65;;;;;;;12.53;100.00;99799.91;1696262;84;21124;-67
2022/10/23 09:53:39;;;;;;;37.35;21.95;;;;;;;12.57;100.00;99797.51;1696582;84;21097;-69
2022/10/23 09:56:29;;;;;;;35.10;20.82;;;;;;;12.70;100.00;99795.95;1678449;84;21073;-67
2022/10/23 09:59:12;;;;;;;34.03;21.37;;;;;;;12.64;100.00;99793.62;1696433;84;21065;-67
2022/10/23 10:01:50;;;;;;;32.25;20.75;;;;;;;12.79;100.00;99792.84;1696138;83;21536;-68
2022/10/23 10:04:39;;;;;;;40.10;21.12;;;;;;;12.84;100.00;99793.05;1696563;84;21591;-67
2022/10/23 10:07:19;;;;;;;35.80;20.70;;;;;;;12.83;100.00;99790.03;1696475;84;21201;-68
2022/10/23 10:09:47;;;;;;;41.55;23.50;;;;;;;12.84;100.00;99787.77;1696433;84;21044;-68
2022/10/23 10:12:39;;;;;;;31.00;19.27;;;;;;;12.81;100.00;99792.74;1696277;84;21104;-67
2022/10/23 10:15:33;;;;;;;35.08;20.48;;;;;;;12.85;100.00;99786.84;1694908;84;21396;-68
2022/10/23 10:18:43;;;;;;;35.90;20.65;;;;;;;12.86;100.00;99787.22;1696372;84;21021;-67
2022/10/23 10:21:39;;;;;;;33.10;19.82;;;;;;;12.89;100.00;99789.73;1695984;84;21529;-68
2022/10/23 10:24:14;;;;;;;29.98;18.92;;;;;;;12.85;100.00;99786.38;1696450;84;21104;-67
2022/10/23 10:27:25;;;;;;;36.20;21.80;;;;;;;12.87;100.00;99779.22;1696403;84;21101;-68
2022/10/23 10:30:04;;;;;;;39.75;22.25;;;;;;;12.94;100.00;99779.76;1696280;84;21116;-67
2022/10/23 10:32:58;;;;;;;32.63;20.35;;;;;;;12.97;100.00;99779.59;1696468;84;21061;-68
2022/10/23 10:35:42;;;;;;;37.05;21.40;;;;;;;13.01;100.00;99774.53;1686006;84;21092;-68
2022/10/23 10:38:50;;;;;;;36.63;21.23;;;;;;;13.04;100.00;99774.84;1696519;84;21002;-67
2022/10/23 10:41:46;;;;;;;36.80;21.60;;;;;;;13.04;100.00;99771.72;1696464;84;21175;-68
2022/10/23 10:44:44;;;;;;;39.40;22.75;;;;;;;12.97;100.00;99772.51;1709598;83;21075;-67
2022/10/23 10:47:50;;;;;;;41.02;22.75;;;;;;;13.01;100.00;99765.28;1725476;83;21102;-67
2022/10/23 10:50:29;;;;;;;36.53;22.67;;;;;;;13.00;100.00;99767.55;1704443;82;21102;-68
2022/10/23 10:53:21;;;;;;;36.48;21.77;;;;;;;13.01;100.00;99760.00;1724271;82;21143;-69
2022/10/23 10:55:51;;;;;;;36.93;22.67;;;;;;;13.13;100.00;99773.88;1725801;83;21489;-68
2022/10/23 10:58:48;;;;;;;40.05;23.75;;;;;;;13.27;100.00;99768.32;1725462;83;21075;-67
2022/10/23 11:01:42;;;;;;;37.28;22.93;;;;;;;13.25;100.00;99771.52;1725670;81;21024;-68
2022/10/23 11:04:31;;;;;;;32.33;18.98;;;;;;;13.16;100.00;99771.56;1725649;83;21120;-68
2022/10/23 11:07:00;;;;;;;40.10;22.85;;;;;;;13.14;100.00;99774.28;1725709;82;21024;-67
2022/10/23 11:09:28;;;;;;;37.05;23.02;;;;;;;13.00;100.00;99770.20;1725655;83;21054;-67
2022/10/23 11:11:54;;;;;;;42.45;23.38;;;;;;;12.97;100.00;99771.19;1725822;82;21070;-68
2022/10/23 11:14:23;;;;;;;36.53;22.20;;;;;;;13.02;100.00;99772.27;1725712;83;21047;-67
2022/10/23 11:17:05;;;;;;;39.80;23.20;;;;;;;12.97;100.00;99771.66;1723330;82;21193;-67
2022/10/23 11:19:46;;;;;;;35.25;20.02;;;;;;;13.09;100.00;99774.12;1720115;83;21103;-67
2022/10/23 11:22:35;;;;;;;37.08;22.62;;;;;;;13.13;100.00;99768.59;1721017;83;21293;-68
2022/10/23 11:25:42;;;;;;;34.92;20.68;;;;;;;13.18;100.00;99774.51;1720491;83;21047;-68
2022/10/23 11:28:53;;;;;;;35.45;20.40;;;;;;;13.17;100.00;99773.26;1715918;83;21079;-67
2022/10/23 11:31:53;;;;;;;32.48;20.45;;;;;;;13.04;100.00;99773.04;1720810;83;21358;-68
2022/10/23 11:34:50;;;;;;;32.53;20.62;;;;;;;13.22;100.00;99777.34;1720792;83;21087;-67
2022/10/23 11:37:20;;;;;;;32.10;20.37;;;;;;;13.26;100.00;99777.20;1720326;83;21034;-68
2022/10/23 11:40:11;;;;;;;33.75;19.48;;;;;;;13.24;100.00;99778.59;1720613;83;21078;-66
2022/10/23 11:42:44;;;;;;;28.27;17.73;;;;;;;13.21;100.00;99780.09;1720471;83;21046;-67
2022/10/23 11:45:35;;;;;;;27.93;16.97;;;;;;;13.36;100.00;99775.80;1695857;83;21047;-67
2022/10/23 11:48:05;;;;;;;26.77;16.90;;;;;;;13.27;100.00;99777.58;1691580;84;21453;-67